createdAt,value
2023-03-11T00:00:47.437Z,80.10
2023-03-11T00:03:16.427Z,79.70
2023-03-11T00:05:44.001Z,79.50
2023-03-11T00:08:13.176Z,79.30
2023-03-11T00:10:42.033Z,79.80
2023-03-11T00:13:11.352Z,79.70
2023-03-11T00:15:39.033Z,79.90
2023-03-11T00:18:06.335Z,79.90
2023-03-11T00:20:35.011Z,79.80
2023-03-11T00:23:03.929Z,79.80
2023-03-11T00:25:31.737Z,80.00
2023-03-11T00:27:58.865Z,80.10
2023-03-11T00:30:26.124Z,80.20
2023-03-11T00:32:54.260Z,80.30
2023-03-11T00:35:27.382Z,80.30
2023-03-11T00:37:55.615Z,80.90
2023-03-11T00:40:22.706Z,84.00
2023-03-11T00:42:51.993Z,86.70
2023-03-11T00:45:19.988Z,88.50
2023-03-11T00:47:47.844Z,90.70
2023-03-11T00:50:18.451Z,92.20
2023-03-11T00:52:48.398Z,93.00
2023-03-11T00:55:17.083Z,94.20
2023-03-11T00:57:44.532Z,96.70
2023-03-11T01:00:16.261Z,96.20
2023-03-11T01:02:43.299Z,96.30
2023-03-11T01:05:10.865Z,97.00
2023-03-11T01:07:37.728Z,97.10
2023-03-11T01:10:05.963Z,97.50
2023-03-11T01:12:33.060Z,97.00
2023-03-11T01:14:59.900Z,97.00
2023-03-11T01:17:27.329Z,97.80
2023-03-11T01:19:54.152Z,96.80
2023-03-11T01:22:22.581Z,96.00
2023-03-11T01:24:49.365Z,95.50
2023-03-11T01:27:16.952Z,95.40
2023-03-11T01:29:44.125Z,94.80
2023-03-11T01:32:11.309Z,94.40
2023-03-11T01:34:38.745Z,94.00
2023-03-11T01:37:05.530Z,93.40
2023-03-11T01:39:32.297Z,92.90
2023-03-11T01:41:59.600Z,92.50
2023-03-11T01:44:26.755Z,92.10
2023-03-11T01:46:53.656Z,91.70
2023-03-11T01:49:24.429Z,91.40
2023-03-11T01:51:53.935Z,90.50
2023-03-11T01:54:21.582Z,90.30
2023-03-11T01:56:49.579Z,89.70
2023-03-11T01:59:19.456Z,89.70
2023-03-11T02:02:07.189Z,85.90
2023-03-11T02:04:34.847Z,85.70
2023-03-11T02:07:01.912Z,83.10
2023-03-11T02:09:28.961Z,83.10
2023-03-11T02:11:57.181Z,81.00
2023-03-11T02:14:24.311Z,80.60
2023-03-11T02:16:51.097Z,80.10
2023-03-11T02:19:30.145Z,78.00
2023-03-11T02:21:57.047Z,78.50
2023-03-11T02:24:51.019Z,78.50
2023-03-11T02:27:18.591Z,79.40
2023-03-11T02:29:47.094Z,79.70
2023-03-11T02:32:13.969Z,79.70
2023-03-11T02:34:40.726Z,79.80
2023-03-11T02:37:11.024Z,79.20
2023-03-11T02:39:41.983Z,78.30
2023-03-11T02:42:29.028Z,79.70
2023-03-11T02:45:03.933Z,78.70
2023-03-11T02:47:30.679Z,78.50
2023-03-11T02:49:59.175Z,78.60
2023-03-11T02:52:27.215Z,78.90
2023-03-11T02:54:53.984Z,78.20
2023-03-11T02:57:20.717Z,78.40
2023-03-11T02:59:47.491Z,77.80
2023-03-11T03:02:14.643Z,76.80
2023-03-11T03:04:41.432Z,76.60
2023-03-11T03:07:09.155Z,76.80
2023-03-11T03:09:36.393Z,77.20
2023-03-11T03:12:03.653Z,77.20
2023-03-11T03:14:30.687Z,77.50
2023-03-11T03:16:57.631Z,77.10
2023-03-11T03:19:24.855Z,77.50
2023-03-11T03:21:51.715Z,76.30
2023-03-11T03:24:18.541Z,76.50
2023-03-11T03:26:46.568Z,76.30
2023-03-11T03:29:13.702Z,77.10
2023-03-11T03:31:41.054Z,77.10
2023-03-11T03:34:07.847Z,77.00
2023-03-11T03:36:35.072Z,77.10
2023-03-11T03:39:02.107Z,76.60
2023-03-11T03:41:28.864Z,77.10
2023-03-11T03:43:57.836Z,76.70
2023-03-11T03:46:25.095Z,76.30
2023-03-11T03:48:52.689Z,76.00
2023-03-11T03:51:19.478Z,76.20
2023-03-11T03:53:48.913Z,76.60
2023-03-11T03:56:17.486Z,76.40
2023-03-11T03:58:44.346Z,76.20
2023-03-11T04:01:11.466Z,76.40
2023-03-11T04:03:39.200Z,76.20
2023-03-11T04:06:39.891Z,75.60
2023-03-11T04:09:07.241Z,76.10
2023-03-11T04:11:34.120Z,75.80
2023-03-11T04:14:02.762Z,75.30
2023-03-11T04:16:29.697Z,76.00
2023-03-11T04:18:56.557Z,75.80
2023-03-11T04:21:23.342Z,76.10
2023-03-11T04:23:50.141Z,75.10
2023-03-11T04:26:16.952Z,74.40
2023-03-11T04:28:43.734Z,74.30
2023-03-11T04:31:12.666Z,74.50
2023-03-11T04:33:40.070Z,73.60
2023-03-11T04:36:08.132Z,73.10
2023-03-11T04:38:35.128Z,73.80
2023-03-11T04:41:03.123Z,73.90
2023-03-11T04:43:30.213Z,73.60
2023-03-11T04:45:57.168Z,72.50
2023-03-11T04:48:24.773Z,72.00
2023-03-11T04:50:51.612Z,72.80
2023-03-11T04:53:18.917Z,72.20
2023-03-11T04:55:48.121Z,72.00
2023-03-11T04:58:15.132Z,72.30
2023-03-11T05:00:42.214Z,71.40
2023-03-11T05:03:09.459Z,71.90
2023-03-11T05:05:36.327Z,72.00
2023-03-11T05:08:06.932Z,71.90
2023-03-11T05:10:35.671Z,71.00
2023-03-11T05:13:02.924Z,71.90
2023-03-11T05:15:34.235Z,71.30
2023-03-11T05:18:01.355Z,71.80
2023-03-11T05:20:28.486Z,70.80
2023-03-11T05:22:56.893Z,71.20
2023-03-11T05:25:23.861Z,71.50
2023-03-11T05:27:50.670Z,71.00
2023-03-11T05:30:18.919Z,70.80
2023-03-11T05:32:48.289Z,70.80
2023-03-11T05:35:15.828Z,71.30
2023-03-11T05:37:42.778Z,71.20
2023-03-11T05:40:11.241Z,71.00
2023-03-11T05:42:38.138Z,70.90
2023-03-11T05:45:05.255Z,70.70
2023-03-11T05:47:32.207Z,70.00
2023-03-11T05:49:59.087Z,69.40
2023-03-11T05:52:30.636Z,69.40
2023-03-11T05:54:57.369Z,69.50
2023-03-11T05:57:24.708Z,69.10
2023-03-11T05:59:52.667Z,69.30
2023-03-11T06:02:21.113Z,69.30
2023-03-11T06:04:48.602Z,67.20
2023-03-11T06:07:16.937Z,68.70
2023-03-11T06:09:47.777Z,68.30
2023-03-11T06:12:14.528Z,69.00
2023-03-11T06:14:41.352Z,69.00
2023-03-11T06:17:08.224Z,67.30
2023-03-11T06:19:37.278Z,67.40
2023-03-11T06:22:05.173Z,67.10
2023-03-11T06:24:33.270Z,67.20
2023-03-11T06:27:00.136Z,67.80
2023-03-11T06:29:29.372Z,67.70
2023-03-11T06:31:56.533Z,67.90
2023-03-11T06:34:24.835Z,66.80
2023-03-11T06:36:52.501Z,67.10
2023-03-11T06:39:24.074Z,65.30
2023-03-11T06:41:51.519Z,65.60
2023-03-11T06:44:18.540Z,64.60
2023-03-11T06:46:45.388Z,65.40
2023-03-11T06:49:12.232Z,64.60
2023-03-11T06:51:41.540Z,65.20
2023-03-11T06:54:16.887Z,64.60
2023-03-11T06:56:43.795Z,64.80
2023-03-11T06:59:11.525Z,64.50
2023-03-11T07:01:38.292Z,63.10
2023-03-11T07:04:05.945Z,61.90
2023-03-11T07:06:33.418Z,62.20
2023-03-11T07:09:00.656Z,62.30
2023-03-11T07:11:28.356Z,60.90
2023-03-11T07:13:55.657Z,62.30
2023-03-11T07:16:24.685Z,61.10
2023-03-11T07:18:51.905Z,60.60
2023-03-11T07:21:22.188Z,60.60
2023-03-11T07:23:57.229Z,60.80
2023-03-11T07:26:26.355Z,60.50
2023-03-11T07:28:54.149Z,59.40
2023-03-11T07:31:23.619Z,60.30
2023-03-11T07:33:51.034Z,59.70
2023-03-11T07:36:21.984Z,59.20
2023-03-11T07:38:54.349Z,58.30
2023-03-11T07:41:23.426Z,57.70
2023-03-11T07:43:56.830Z,58.20
2023-03-11T07:46:24.342Z,58.00
2023-03-11T07:48:52.104Z,57.90
2023-03-11T07:51:21.188Z,57.60
2023-03-11T07:53:50.763Z,56.80
2023-03-11T07:56:17.737Z,57.70
2023-03-11T07:58:47.698Z,57.80
2023-03-11T08:01:16.607Z,56.70
2023-03-11T08:03:47.097Z,57.00
2023-03-11T08:06:21.724Z,56.70
2023-03-11T08:08:49.602Z,57.40
2023-03-11T08:11:17.978Z,58.10
2023-03-11T08:13:47.062Z,57.20
2023-03-11T08:16:19.431Z,57.60
2023-03-11T08:18:47.249Z,58.40
2023-03-11T08:21:15.864Z,58.10
2023-03-11T08:23:44.314Z,58.10
2023-03-11T08:26:13.123Z,58.60
2023-03-11T08:28:51.680Z,58.90
2023-03-11T08:31:25.316Z,59.20
2023-03-11T08:33:57.746Z,59.40
2023-03-11T08:36:29.157Z,59.10
2023-03-11T08:38:56.042Z,58.90
2023-03-11T08:41:23.013Z,59.60
2023-03-11T08:43:52.139Z,61.20
2023-03-11T08:46:30.549Z,59.90
2023-03-11T08:49:01.440Z,59.10
2023-03-11T08:51:29.003Z,59.20
2023-03-11T08:53:58.316Z,58.00
2023-03-11T08:56:29.071Z,57.50
2023-03-11T09:01:42.647Z,57.60
2023-03-11T09:04:09.638Z,56.50
2023-03-11T09:06:37.358Z,56.70
2023-03-11T09:09:04.200Z,56.20
2023-03-11T09:11:31.463Z,55.40
2023-03-11T09:13:59.041Z,54.50
2023-03-11T09:16:25.923Z,54.10
2023-03-11T09:18:52.884Z,53.60
2023-03-11T09:21:20.395Z,52.90
2023-03-11T09:23:47.726Z,54.00
2023-03-11T09:26:14.739Z,54.50
2023-03-11T09:28:42.422Z,55.60
2023-03-11T09:31:10.745Z,55.70
2023-03-11T09:33:39.261Z,54.20
2023-03-11T09:36:13.001Z,54.70
2023-03-11T09:38:40.510Z,54.90
2023-03-11T09:41:26.344Z,55.20
2023-03-11T09:44:15.178Z,55.40
2023-03-11T09:47:05.465Z,55.80
2023-03-11T09:49:42.354Z,55.30
2023-03-11T09:52:16.815Z,55.80
2023-03-11T09:55:03.446Z,55.70
2023-03-11T09:57:34.576Z,56.30
2023-03-11T10:00:02.246Z,56.00
2023-03-11T10:02:32.758Z,56.10
2023-03-11T10:05:04.718Z,56.20
2023-03-11T10:07:34.609Z,56.20
2023-03-11T10:10:02.746Z,56.60
2023-03-11T10:12:53.103Z,56.90
2023-03-11T10:16:19.582Z,57.00
2023-03-11T10:19:09.450Z,56.50
2023-03-11T10:21:50.822Z,57.20
2023-03-11T10:24:20.051Z,57.20
2023-03-11T10:26:58.536Z,57.30
2023-03-11T10:29:30.849Z,57.30
2023-03-11T10:32:17.176Z,57.20
2023-03-11T10:35:10.956Z,57.20
2023-03-11T10:37:49.295Z,57.30
2023-03-11T10:40:23.764Z,57.60
2023-03-11T10:42:51.345Z,57.90
2023-03-11T10:45:18.123Z,57.80
2023-03-11T10:47:45.031Z,58.10
2023-03-11T10:50:19.362Z,57.50
2023-03-11T10:53:06.411Z,57.40
2023-03-11T10:55:33.768Z,57.00
2023-03-11T10:58:08.277Z,57.20
2023-03-11T11:00:36.566Z,57.40
2023-03-11T11:03:04.496Z,57.00
2023-03-11T11:05:35.383Z,57.10
2023-03-11T11:08:16.045Z,57.10
2023-03-11T11:10:55.074Z,56.20
2023-03-11T11:13:24.175Z,56.80
2023-03-11T11:16:05.113Z,56.50
2023-03-11T11:18:48.188Z,56.60
2023-03-11T11:21:39.474Z,57.40
2023-03-11T11:24:24.539Z,56.70
2023-03-11T11:27:10.431Z,56.10
2023-03-11T11:29:37.365Z,55.70
2023-03-11T11:32:19.028Z,55.30
2023-03-11T11:34:57.619Z,55.80
2023-03-11T11:37:26.840Z,55.30
2023-03-11T11:39:56.251Z,55.00
2023-03-11T11:42:25.459Z,53.90
2023-03-11T11:45:02.953Z,54.80
2023-03-11T11:47:34.115Z,55.30
2023-03-11T11:50:07.036Z,55.10
2023-03-11T11:52:40.231Z,55.50
2023-03-11T11:55:08.072Z,56.30
2023-03-11T11:57:34.905Z,55.70
2023-03-11T12:00:03.322Z,55.90
2023-03-11T12:02:57.430Z,56.00
2023-03-11T12:05:29.075Z,55.80
2023-03-11T12:08:36.218Z,56.20
2023-03-11T12:11:19.078Z,56.20
2023-03-11T12:13:45.823Z,56.30
2023-03-11T12:16:18.685Z,55.20
2023-03-11T12:18:53.400Z,55.50
2023-03-11T12:21:32.153Z,55.50
2023-03-11T12:24:32.093Z,55.40
2023-03-11T12:27:01.397Z,55.70
2023-03-11T12:29:36.945Z,55.40
2023-03-11T12:32:03.861Z,55.40
2023-03-11T12:34:31.336Z,55.20
2023-03-11T12:36:59.494Z,55.80
2023-03-11T12:39:35.695Z,56.10
2023-03-11T12:42:11.997Z,56.30
2023-03-11T12:44:39.273Z,56.50
2023-03-11T12:47:13.531Z,56.60
2023-03-11T12:49:49.381Z,56.60
2023-03-11T12:52:22.409Z,56.90
2023-03-11T12:54:55.716Z,56.30
2023-03-11T12:57:22.794Z,56.90
2023-03-11T12:59:57.719Z,57.00
2023-03-11T13:02:55.420Z,56.80
2023-03-11T13:05:24.884Z,57.20
2023-03-11T13:08:15.456Z,57.50
2023-03-11T13:10:43.686Z,57.40
2023-03-11T13:13:40.109Z,57.40
2023-03-11T13:16:13.591Z,57.70
2023-03-11T13:18:41.538Z,57.50
2023-03-11T13:21:27.192Z,57.90
2023-03-11T13:24:21.524Z,57.70
2023-03-11T13:27:00.855Z,58.00
2023-03-11T13:30:12.760Z,58.30
2023-03-11T13:32:55.042Z,58.60
2023-03-11T13:35:43.409Z,58.80
2023-03-11T13:38:31.807Z,59.20
2023-03-11T13:40:58.835Z,58.70
2023-03-11T13:43:27.986Z,57.90
2023-03-11T13:46:02.171Z,57.00
2023-03-11T13:48:33.058Z,57.80
2023-03-11T13:51:05.354Z,56.00
2023-03-11T13:53:43.853Z,55.80
2023-03-11T13:56:44.515Z,55.60
2023-03-11T13:59:17.924Z,56.70
2023-03-11T14:01:55.992Z,56.70
2023-03-11T14:04:28.555Z,57.70
2023-03-11T14:06:57.784Z,57.60
2023-03-11T14:09:25.780Z,57.90
2023-03-11T14:12:03.462Z,57.90
2023-03-11T14:14:49.553Z,58.20
2023-03-11T14:17:17.968Z,58.30
2023-03-11T14:20:01.636Z,58.40
2023-03-11T14:22:28.719Z,57.80
2023-03-11T14:24:55.961Z,57.90
2023-03-11T14:27:22.776Z,58.10
2023-03-11T14:29:49.847Z,58.10
2023-03-11T14:32:30.790Z,58.20
2023-03-11T14:34:57.915Z,57.80
2023-03-11T14:37:35.863Z,57.00
2023-03-11T14:40:04.262Z,57.10
2023-03-11T14:42:45.063Z,57.40
2023-03-11T14:45:16.726Z,57.10
2023-03-11T14:47:59.863Z,57.40
2023-03-11T14:50:34.723Z,57.90
2023-03-11T14:53:19.243Z,57.80
2023-03-11T14:55:56.799Z,57.50
2023-03-11T15:11:57.639Z,56.90
2023-03-11T15:17:39.835Z,56.30
2023-03-11T15:20:39.752Z,55.00
2023-03-11T15:23:42.501Z,55.60
2023-03-11T15:29:32.770Z,55.80
2023-03-11T15:32:23.386Z,55.60
2023-03-11T15:35:04.841Z,55.90
2023-03-11T15:45:38.999Z,55.80
2023-03-11T15:51:14.073Z,56.00
2023-03-11T16:01:58.950Z,55.80
2023-03-11T16:04:31.157Z,55.40
2023-03-11T20:13:24.408Z,68.60
2023-03-11T20:29:01.279Z,69.50
2023-03-11T20:34:56.460Z,69.60
2023-03-11T20:37:31.237Z,69.40
2023-03-11T20:40:01.917Z,69.60
2023-03-11T20:42:29.942Z,70.50
2023-03-11T20:44:56.800Z,70.20
2023-03-11T20:47:23.969Z,71.00
2023-03-11T20:49:53.475Z,69.20
2023-03-11T20:52:20.256Z,69.80
2023-03-11T20:54:47.109Z,69.70
2023-03-11T20:57:17.072Z,70.50
2023-03-11T20:59:44.165Z,69.10
2023-03-11T21:02:11.919Z,69.00
2023-03-11T21:04:41.282Z,70.00
2023-03-11T21:07:08.811Z,69.90
2023-03-11T21:09:36.037Z,69.20
2023-03-11T21:12:02.973Z,70.00
2023-03-11T21:14:30.468Z,70.60
2023-03-11T21:16:59.996Z,69.80
2023-03-11T21:19:26.900Z,69.90
2023-03-11T21:21:53.711Z,69.70
2023-03-11T21:24:20.726Z,69.60
2023-03-11T21:26:49.067Z,70.10
2023-03-11T21:29:17.229Z,70.40
2023-03-11T21:31:44.225Z,71.20
2023-03-11T21:34:11.953Z,70.50
2023-03-11T21:36:38.927Z,70.30
2023-03-11T21:39:10.939Z,71.00
2023-03-11T21:41:38.517Z,71.00
2023-03-11T21:44:07.336Z,72.00
2023-03-11T21:46:34.479Z,71.70
2023-03-11T21:49:01.679Z,71.80
2023-03-11T21:51:28.737Z,71.00
2023-03-11T21:53:56.439Z,71.20
2023-03-11T21:56:24.225Z,70.50
2023-03-11T21:58:51.224Z,71.40
2023-03-11T22:01:18.289Z,72.00
2023-03-11T22:03:48.034Z,71.30
2023-03-11T22:06:14.940Z,72.30
2023-03-11T22:08:43.096Z,73.00
2023-03-11T22:11:11.358Z,72.70
2023-03-11T22:13:38.225Z,71.60
2023-03-11T22:16:06.705Z,73.10
2023-03-11T22:18:33.632Z,72.60
2023-03-11T22:21:00.612Z,71.60
2023-03-11T22:23:27.869Z,72.10
2023-03-11T22:25:54.728Z,72.10
2023-03-11T22:28:23.024Z,71.90
2023-03-11T22:30:50.336Z,72.40
2023-03-11T22:33:17.211Z,72.60
2023-03-11T22:35:53.845Z,73.10
2023-03-11T22:38:20.781Z,72.40
2023-03-11T22:40:47.891Z,72.40
2023-03-11T22:43:14.728Z,74.00
2023-03-11T22:45:42.302Z,73.70
2023-03-11T22:48:09.034Z,73.30
2023-03-11T22:50:36.426Z,73.20
2023-03-11T22:53:05.844Z,74.00
2023-03-11T22:55:32.532Z,74.00
2023-03-11T22:57:59.307Z,73.30
2023-03-11T23:00:26.110Z,73.90
2023-03-11T23:02:55.273Z,74.40
2023-03-11T23:05:22.131Z,73.90
2023-03-11T23:07:49.289Z,73.70
2023-03-11T23:10:19.029Z,73.50
2023-03-11T23:12:47.271Z,74.40
2023-03-11T23:15:16.089Z,74.30
2023-03-11T23:17:44.172Z,74.70
2023-03-11T23:20:13.244Z,74.70
2023-03-11T23:22:40.569Z,75.60
2023-03-11T23:25:09.429Z,74.90
2023-03-11T23:27:36.174Z,75.30
2023-03-11T23:30:03.129Z,75.20
2023-03-11T23:32:31.628Z,75.60
2023-03-11T23:34:58.474Z,75.70
2023-03-11T23:37:26.832Z,74.90
2023-03-11T23:39:53.603Z,76.10
2023-03-11T23:42:25.805Z,75.80
2023-03-11T23:44:53.427Z,75.30
2023-03-11T23:47:20.840Z,76.50
2023-03-11T23:49:47.622Z,76.20
2023-03-11T23:52:14.871Z,75.80
2023-03-11T23:54:43.037Z,77.10
2023-03-11T23:57:11.001Z,76.30
2023-03-11T23:59:37.735Z,76.40
